Terminal Aerodrome Forecast
Issued by NWS

Home | Current Version | Previous Version | Text Only | Print | Product List | Glossary On
Versions: 1 2 3 4 5 6 7 8 9 10 11 12 13 14 15 16 17 18 19 20 21 22 23 24 25
000
FTUS43 KLSX 051344 AAA
TAFSUS
TAF AMD
KSUS 051344Z 0514/0612 VRB03KT 6SM BR SCT015 BKN100
      TEMPO 0514/0516 BKN015
     FM051600 15005KT P6SM SCT015
     FM060400 12004KT P6SM VCSH BKN050
     FM060600 VRB03KT P6SM VCSH OVC025=

USA.gov is the U.S. government's official web portal to all federal, state and local government web resources and services.